DLH5496 ESGG-EDDH
Flight info
| Callsign | DLH5496 |
|---|---|
| Flight time | 1h 10m |
| Altitude | 36000 |
| Route | VADIN DCT ALASA/N0438F350 M852 EKERN/N0383F230 T905 BOGMU BOGMU5A |
| Aircraft | A320/M-SDE3FGHIRWY/LB1 |
Departure
| Time | 2026-05-07 15:24 |
|---|---|
| Airport | Göteborg Landvetter Airport (ESGG) |
Arrival
| Time | 2026-05-07 16:35 |
|---|---|
| Airport | Hamburg Helmut Schmidt Airport (EDDH) |
| Time | Latitude | Longitude | Altitude | Speed | Heading |
|---|---|---|---|---|---|
| 2026-05-07 14:43 | 57.66849 | 12.29374 | 516 ft | 0 kts | 116° |
| 2026-05-07 15:14 | 57.66857 | 12.29341 | 516 ft | 4 kts | 116° |
| 2026-05-07 15:14 | 57.66870 | 12.29299 | 516 ft | 4 kts | 136° |
| 2026-05-07 15:14 | 57.66891 | 12.29277 | 516 ft | 4 kts | 187° |
| 2026-05-07 15:15 | 57.66901 | 12.29281 | 516 ft | 0 kts | 206° |
| 2026-05-07 15:18 | 57.66894 | 12.29275 | 516 ft | 4 kts | 206° |
| 2026-05-07 15:18 | 57.66869 | 12.29252 | 516 ft | 3 kts | 206° |
| 2026-05-07 15:19 | 57.66837 | 12.29223 | 516 ft | 8 kts | 206° |
| 2026-05-07 15:19 | 57.66776 | 12.29167 | 516 ft | 6 kts | 206° |
| 2026-05-07 15:19 | 57.66777 | 12.29075 | 516 ft | 11 kts | 304° |
| 2026-05-07 15:19 | 57.66849 | 12.29009 | 516 ft | 15 kts | 17° |
| 2026-05-07 15:20 | 57.66965 | 12.29114 | 516 ft | 22 kts | 25° |
| 2026-05-07 15:20 | 57.67117 | 12.29252 | 516 ft | 27 kts | 26° |
| 2026-05-07 15:20 | 57.67275 | 12.29396 | 516 ft | 19 kts | 26° |
| 2026-05-07 15:20 | 57.67367 | 12.29478 | 516 ft | 10 kts | 20° |
| 2026-05-07 15:21 | 57.67428 | 12.29412 | 516 ft | 13 kts | 295° |
| 2026-05-07 15:21 | 57.67461 | 12.29273 | 515 ft | 6 kts | 282° |
| 2026-05-07 15:21 | 57.67460 | 12.29250 | 515 ft | 0 kts | 266° |
| 2026-05-07 15:22 | 57.67459 | 12.29208 | 515 ft | 6 kts | 266° |
| 2026-05-07 15:23 | 57.67455 | 12.29098 | 515 ft | 9 kts | 265° |
| 2026-05-07 15:23 | 57.67416 | 12.29012 | 515 ft | 3 kts | 206° |
| 2026-05-07 15:23 | 57.67413 | 12.29009 | 515 ft | 6 kts | 206° |
| 2026-05-07 15:24 | 57.67169 | 12.28785 | 514 ft | 76 kts | 205° |
| 2026-05-07 15:24 | 57.66496 | 12.28176 | 512 ft | 136 kts | 206° |
| 2026-05-07 15:24 | 57.65516 | 12.27279 | 679 ft | 169 kts | 209° |
| 2026-05-07 15:24 | 57.64412 | 12.26297 | 1250 ft | 184 kts | 210° |
| 2026-05-07 15:25 | 57.63228 | 12.25232 | 1904 ft | 195 kts | 208° |
| 2026-05-07 15:25 | 57.61963 | 12.24073 | 2216 ft | 216 kts | 208° |
| 2026-05-07 15:25 | 57.60491 | 12.23028 | 2619 ft | 238 kts | 194° |
| 2026-05-07 15:25 | 57.58823 | 12.22608 | 3376 ft | 245 kts | 185° |
| 2026-05-07 15:26 | 57.57099 | 12.22432 | 4113 ft | 256 kts | 182° |
| 2026-05-07 15:26 | 57.55283 | 12.22301 | 4848 ft | 265 kts | 182° |
| 2026-05-07 15:26 | 57.53439 | 12.22077 | 5739 ft | 268 kts | 184° |
| 2026-05-07 15:26 | 57.51571 | 12.21764 | 6669 ft | 271 kts | 186° |
| 2026-05-07 15:27 | 57.49681 | 12.21397 | 7541 ft | 274 kts | 187° |
| 2026-05-07 15:27 | 57.47774 | 12.21002 | 8413 ft | 278 kts | 187° |
| 2026-05-07 15:27 | 57.45844 | 12.20564 | 9288 ft | 281 kts | 192° |
| 2026-05-07 15:27 | 57.43974 | 12.19483 | 10152 ft | 282 kts | 208° |
| 2026-05-07 15:28 | 57.42316 | 12.17534 | 10927 ft | 283 kts | 223° |
| 2026-05-07 15:28 | 57.40913 | 12.14961 | 11751 ft | 284 kts | 228° |
| 2026-05-07 15:28 | 57.39524 | 12.12323 | 12529 ft | 288 kts | 228° |
| 2026-05-07 15:28 | 57.38131 | 12.09694 | 13298 ft | 291 kts | 227° |
| 2026-05-07 15:29 | 57.36700 | 12.07005 | 14043 ft | 295 kts | 227° |
| 2026-05-07 15:29 | 57.35247 | 12.04279 | 14729 ft | 298 kts | 227° |
| 2026-05-07 15:29 | 57.33778 | 12.01527 | 15391 ft | 302 kts | 227° |
| 2026-05-07 15:29 | 57.32292 | 11.98748 | 16065 ft | 305 kts | 227° |
| 2026-05-07 15:30 | 57.30791 | 11.95948 | 16735 ft | 308 kts | 227° |
| 2026-05-07 15:30 | 57.29272 | 11.93117 | 17422 ft | 311 kts | 227° |
| 2026-05-07 15:30 | 57.27750 | 11.90280 | 18257 ft | 305 kts | 227° |
| 2026-05-07 15:30 | 57.26278 | 11.87548 | 19192 ft | 297 kts | 227° |
| 2026-05-07 15:31 | 57.24821 | 11.84838 | 19852 ft | 297 kts | 227° |
| 2026-05-07 15:31 | 57.23361 | 11.82123 | 20451 ft | 300 kts | 227° |
| 2026-05-07 15:31 | 57.21905 | 11.79417 | 21009 ft | 302 kts | 227° |
| 2026-05-07 15:31 | 57.20411 | 11.76652 | 21582 ft | 305 kts | 227° |
| 2026-05-07 15:32 | 57.18912 | 11.73880 | 22141 ft | 307 kts | 227° |
| 2026-05-07 15:32 | 57.17390 | 11.71066 | 22690 ft | 310 kts | 227° |
| 2026-05-07 15:32 | 57.15860 | 11.68240 | 23237 ft | 313 kts | 227° |
| 2026-05-07 15:32 | 57.14200 | 11.65598 | 23761 ft | 318 kts | 219° |
| 2026-05-07 15:33 | 57.12323 | 11.63376 | 24059 ft | 323 kts | 211° |
| 2026-05-07 15:33 | 57.10272 | 11.61658 | 24118 ft | 325 kts | 205° |
| 2026-05-07 15:33 | 57.08184 | 11.60080 | 24132 ft | 324 kts | 205° |
| 2026-05-07 15:33 | 57.06103 | 11.58500 | 24131 ft | 324 kts | 205° |
| 2026-05-07 15:34 | 57.04020 | 11.56907 | 24131 ft | 324 kts | 205° |
| 2026-05-07 15:34 | 57.01935 | 11.55307 | 24132 ft | 324 kts | 205° |
| 2026-05-07 15:34 | 56.99857 | 11.53716 | 24131 ft | 324 kts | 205° |
| 2026-05-07 15:34 | 56.97804 | 11.52149 | 24131 ft | 324 kts | 205° |
| 2026-05-07 15:35 | 56.95721 | 11.50557 | 24132 ft | 324 kts | 205° |
| 2026-05-07 15:35 | 56.93641 | 11.48967 | 24133 ft | 324 kts | 206° |
| 2026-05-07 15:35 | 56.91569 | 11.47382 | 24133 ft | 324 kts | 205° |
| 2026-05-07 15:35 | 56.89487 | 11.45795 | 24129 ft | 324 kts | 205° |
| 2026-05-07 15:36 | 56.87405 | 11.44211 | 24133 ft | 324 kts | 205° |
| 2026-05-07 15:36 | 56.85318 | 11.42625 | 24124 ft | 324 kts | 205° |
| 2026-05-07 15:36 | 56.83915 | 11.41557 | 24129 ft | 324 kts | 205° |
| 2026-05-07 15:36 | 56.81855 | 11.39990 | 24132 ft | 325 kts | 205° |
| 2026-05-07 15:37 | 56.79073 | 11.37887 | 24130 ft | 325 kts | 205° |
| 2026-05-07 15:37 | 56.77660 | 11.36822 | 24132 ft | 325 kts | 205° |
| 2026-05-07 15:37 | 56.75562 | 11.35242 | 24133 ft | 325 kts | 205° |
| 2026-05-07 15:37 | 56.73494 | 11.33685 | 24130 ft | 325 kts | 205° |
| 2026-05-07 15:38 | 56.71405 | 11.32113 | 24133 ft | 325 kts | 205° |
| 2026-05-07 15:38 | 56.69313 | 11.30543 | 24131 ft | 325 kts | 205° |
| 2026-05-07 15:38 | 56.67215 | 11.28975 | 24131 ft | 325 kts | 205° |
| 2026-05-07 15:38 | 56.65132 | 11.27418 | 24131 ft | 325 kts | 205° |
| 2026-05-07 15:39 | 56.63036 | 11.25848 | 24128 ft | 325 kts | 205° |
| 2026-05-07 15:39 | 56.60944 | 11.24282 | 24130 ft | 325 kts | 205° |
| 2026-05-07 15:39 | 56.58851 | 11.22715 | 24126 ft | 325 kts | 205° |
| 2026-05-07 15:39 | 56.56781 | 11.21168 | 24131 ft | 326 kts | 205° |
| 2026-05-07 15:40 | 56.54659 | 11.19586 | 24130 ft | 326 kts | 205° |
| 2026-05-07 15:40 | 56.52564 | 11.18025 | 24131 ft | 326 kts | 205° |
| 2026-05-07 15:40 | 56.50494 | 11.16485 | 24130 ft | 326 kts | 205° |
| 2026-05-07 15:40 | 56.48402 | 11.14934 | 24130 ft | 326 kts | 205° |
| 2026-05-07 15:41 | 56.46299 | 11.13377 | 24128 ft | 326 kts | 205° |
| 2026-05-07 15:41 | 56.44202 | 11.11823 | 24129 ft | 326 kts | 205° |
| 2026-05-07 15:41 | 56.42105 | 11.10269 | 24129 ft | 326 kts | 205° |
| 2026-05-07 15:41 | 56.40008 | 11.08718 | 24131 ft | 326 kts | 205° |
| 2026-05-07 15:42 | 56.37908 | 11.07166 | 24131 ft | 326 kts | 205° |
| 2026-05-07 15:42 | 56.35810 | 11.05618 | 24131 ft | 326 kts | 205° |
| 2026-05-07 15:42 | 56.33710 | 11.04069 | 24125 ft | 326 kts | 204° |
| 2026-05-07 15:42 | 56.31611 | 11.02519 | 24133 ft | 326 kts | 204° |
| 2026-05-07 15:43 | 56.29537 | 11.00992 | 24129 ft | 326 kts | 204° |
| 2026-05-07 15:43 | 56.27439 | 10.99453 | 24133 ft | 326 kts | 204° |
| 2026-05-07 15:43 | 56.25336 | 10.97912 | 24132 ft | 326 kts | 204° |
| 2026-05-07 15:43 | 56.23229 | 10.96371 | 24124 ft | 326 kts | 204° |
| 2026-05-07 15:44 | 56.21135 | 10.94837 | 24128 ft | 326 kts | 204° |
| 2026-05-07 15:44 | 56.19029 | 10.93293 | 24125 ft | 326 kts | 204° |
| 2026-05-07 15:44 | 56.16920 | 10.91755 | 24124 ft | 326 kts | 204° |
| 2026-05-07 15:44 | 56.14822 | 10.90228 | 24124 ft | 326 kts | 204° |
| 2026-05-07 15:45 | 56.12713 | 10.88693 | 24124 ft | 326 kts | 204° |
| 2026-05-07 15:45 | 56.10613 | 10.87165 | 24125 ft | 326 kts | 204° |
| 2026-05-07 15:45 | 56.08505 | 10.85634 | 24120 ft | 326 kts | 204° |
| 2026-05-07 15:45 | 56.06408 | 10.84113 | 24049 ft | 325 kts | 204° |
| 2026-05-07 15:46 | 56.02235 | 10.81101 | 23279 ft | 321 kts | 204° |
| 2026-05-07 15:46 | 56.00164 | 10.79611 | 22885 ft | 319 kts | 204° |
| 2026-05-07 15:46 | 55.98113 | 10.78130 | 22506 ft | 317 kts | 204° |
| 2026-05-07 15:47 | 55.96063 | 10.76646 | 22131 ft | 315 kts | 204° |
| 2026-05-07 15:47 | 55.94063 | 10.75200 | 21773 ft | 313 kts | 204° |
| 2026-05-07 15:47 | 55.92020 | 10.73727 | 21413 ft | 312 kts | 204° |
| 2026-05-07 15:47 | 55.90045 | 10.72306 | 21072 ft | 310 kts | 204° |
| 2026-05-07 15:48 | 55.88049 | 10.70876 | 20729 ft | 308 kts | 204° |
| 2026-05-07 15:48 | 55.86060 | 10.69453 | 20393 ft | 306 kts | 203° |
| 2026-05-07 15:48 | 55.84084 | 10.68040 | 20052 ft | 305 kts | 203° |
| 2026-05-07 15:48 | 55.82071 | 10.66595 | 19393 ft | 324 kts | 203° |
| 2026-05-07 15:49 | 55.79887 | 10.65022 | 18941 ft | 346 kts | 203° |
| 2026-05-07 15:49 | 55.77633 | 10.63409 | 18487 ft | 349 kts | 203° |
| 2026-05-07 15:49 | 55.75382 | 10.61808 | 17980 ft | 348 kts | 203° |
| 2026-05-07 15:49 | 55.73136 | 10.60213 | 17460 ft | 347 kts | 203° |
| 2026-05-07 15:50 | 55.70898 | 10.58624 | 16953 ft | 346 kts | 202° |
| 2026-05-07 15:50 | 55.68666 | 10.57041 | 16457 ft | 345 kts | 202° |
| 2026-05-07 15:50 | 55.66440 | 10.55463 | 15956 ft | 344 kts | 202° |
| 2026-05-07 15:50 | 55.64214 | 10.53885 | 15484 ft | 344 kts | 202° |
| 2026-05-07 15:51 | 55.61999 | 10.52317 | 15006 ft | 343 kts | 202° |
| 2026-05-07 15:51 | 55.59785 | 10.50753 | 14537 ft | 342 kts | 202° |
| 2026-05-07 15:51 | 55.57578 | 10.49193 | 14077 ft | 341 kts | 202° |
| 2026-05-07 15:51 | 55.55374 | 10.47636 | 13580 ft | 340 kts | 202° |
| 2026-05-07 15:52 | 55.53210 | 10.46113 | 13070 ft | 339 kts | 202° |
| 2026-05-07 15:52 | 55.51014 | 10.44571 | 12562 ft | 338 kts | 202° |
| 2026-05-07 15:52 | 55.48833 | 10.43039 | 12066 ft | 336 kts | 201° |
| 2026-05-07 15:52 | 55.46659 | 10.41513 | 11578 ft | 335 kts | 201° |
| 2026-05-07 15:53 | 55.44490 | 10.39993 | 11097 ft | 334 kts | 201° |
| 2026-05-07 15:53 | 55.42362 | 10.38505 | 10613 ft | 333 kts | 201° |
| 2026-05-07 15:53 | 55.40213 | 10.37006 | 10195 ft | 330 kts | 201° |
| 2026-05-07 15:53 | 55.38116 | 10.35543 | 10086 ft | 317 kts | 201° |
| 2026-05-07 15:54 | 55.36119 | 10.34149 | 10105 ft | 301 kts | 201° |
| 2026-05-07 15:54 | 55.34209 | 10.32813 | 10112 ft | 293 kts | 201° |
| 2026-05-07 15:54 | 55.32312 | 10.31488 | 10114 ft | 292 kts | 201° |
| 2026-05-07 15:54 | 55.30425 | 10.30172 | 10118 ft | 291 kts | 201° |
| 2026-05-07 15:55 | 55.28542 | 10.28861 | 10118 ft | 291 kts | 201° |
| 2026-05-07 15:55 | 55.26659 | 10.27556 | 10120 ft | 291 kts | 201° |
| 2026-05-07 15:55 | 55.24778 | 10.26255 | 10120 ft | 291 kts | 201° |
| 2026-05-07 15:55 | 55.22893 | 10.24952 | 10118 ft | 291 kts | 201° |
| 2026-05-07 15:56 | 55.21007 | 10.23645 | 10119 ft | 291 kts | 201° |
| 2026-05-07 15:56 | 55.19124 | 10.22342 | 10122 ft | 291 kts | 201° |
| 2026-05-07 15:56 | 55.17259 | 10.21054 | 10093 ft | 290 kts | 201° |
| 2026-05-07 15:56 | 55.15363 | 10.19746 | 9724 ft | 288 kts | 201° |
| 2026-05-07 15:57 | 55.13505 | 10.18464 | 9340 ft | 287 kts | 201° |
| 2026-05-07 15:57 | 55.11676 | 10.17205 | 8965 ft | 285 kts | 201° |
| 2026-05-07 15:57 | 55.09831 | 10.15933 | 8592 ft | 284 kts | 201° |
| 2026-05-07 15:57 | 55.08005 | 10.14676 | 8239 ft | 282 kts | 201° |
| 2026-05-07 15:58 | 55.06186 | 10.13424 | 7865 ft | 280 kts | 201° |
| 2026-05-07 15:58 | 55.04376 | 10.12181 | 7486 ft | 279 kts | 201° |
| 2026-05-07 15:58 | 55.02569 | 10.10943 | 7167 ft | 277 kts | 201° |
| 2026-05-07 15:58 | 55.00793 | 10.09730 | 7131 ft | 278 kts | 201° |
| 2026-05-07 15:59 | 54.98985 | 10.08498 | 7136 ft | 279 kts | 201° |
| 2026-05-07 15:59 | 54.97175 | 10.07266 | 7135 ft | 279 kts | 201° |
| 2026-05-07 15:59 | 54.95360 | 10.06031 | 7137 ft | 279 kts | 201° |
| 2026-05-07 15:59 | 54.93553 | 10.04800 | 7142 ft | 279 kts | 201° |
| 2026-05-07 16:00 | 54.91751 | 10.03570 | 7131 ft | 279 kts | 201° |
| 2026-05-07 16:00 | 54.89937 | 10.02333 | 7135 ft | 279 kts | 201° |
| 2026-05-07 16:00 | 54.88129 | 10.01103 | 7134 ft | 279 kts | 201° |
| 2026-05-07 16:00 | 54.86312 | 9.99873 | 7141 ft | 279 kts | 201° |
| 2026-05-07 16:01 | 54.84501 | 9.98647 | 7134 ft | 280 kts | 201° |
| 2026-05-07 16:01 | 54.82688 | 9.97418 | 7116 ft | 280 kts | 201° |
| 2026-05-07 16:01 | 54.80850 | 9.96293 | 7112 ft | 280 kts | 195° |
| 2026-05-07 16:01 | 54.78950 | 9.95527 | 7113 ft | 280 kts | 189° |
| 2026-05-07 16:02 | 54.77034 | 9.94908 | 7116 ft | 280 kts | 190° |
| 2026-05-07 16:02 | 54.75140 | 9.94293 | 7113 ft | 280 kts | 190° |
| 2026-05-07 16:02 | 54.73224 | 9.93673 | 7112 ft | 280 kts | 190° |
| 2026-05-07 16:02 | 54.71307 | 9.93053 | 7119 ft | 280 kts | 190° |
| 2026-05-07 16:03 | 54.69394 | 9.92433 | 7119 ft | 280 kts | 190° |
| 2026-05-07 16:03 | 54.67477 | 9.91807 | 7113 ft | 280 kts | 190° |
| 2026-05-07 16:03 | 54.65560 | 9.91179 | 7112 ft | 280 kts | 190° |
| 2026-05-07 16:03 | 54.63644 | 9.90552 | 7113 ft | 280 kts | 190° |
| 2026-05-07 16:04 | 54.61726 | 9.89935 | 7107 ft | 280 kts | 189° |
| 2026-05-07 16:04 | 54.59813 | 9.89327 | 7109 ft | 280 kts | 189° |
| 2026-05-07 16:04 | 54.57889 | 9.88718 | 7109 ft | 281 kts | 189° |
| 2026-05-07 16:04 | 54.55983 | 9.88112 | 7124 ft | 282 kts | 189° |
| 2026-05-07 16:05 | 54.54049 | 9.87538 | 7105 ft | 281 kts | 185° |
| 2026-05-07 16:05 | 54.52106 | 9.87370 | 7120 ft | 279 kts | 176° |
| 2026-05-07 16:05 | 54.50171 | 9.87690 | 7122 ft | 279 kts | 168° |
| 2026-05-07 16:05 | 54.48294 | 9.88477 | 7119 ft | 277 kts | 160° |
| 2026-05-07 16:06 | 54.46509 | 9.89703 | 7133 ft | 276 kts | 153° |
| 2026-05-07 16:06 | 54.44776 | 9.91129 | 7125 ft | 276 kts | 153° |
| 2026-05-07 16:06 | 54.43037 | 9.92555 | 7126 ft | 276 kts | 153° |
| 2026-05-07 16:06 | 54.41305 | 9.93966 | 7126 ft | 277 kts | 153° |
| 2026-05-07 16:07 | 54.39563 | 9.95381 | 7128 ft | 277 kts | 153° |
| 2026-05-07 16:07 | 54.37816 | 9.96796 | 7146 ft | 277 kts | 153° |
| 2026-05-07 16:07 | 54.36097 | 9.98193 | 7137 ft | 277 kts | 153° |
| 2026-05-07 16:07 | 54.34332 | 9.99629 | 7143 ft | 277 kts | 152° |
| 2026-05-07 16:08 | 54.32590 | 10.01042 | 7134 ft | 278 kts | 152° |
| 2026-05-07 16:08 | 54.30845 | 10.02455 | 7132 ft | 278 kts | 153° |
| 2026-05-07 16:08 | 54.29116 | 10.03854 | 7130 ft | 278 kts | 153° |
| 2026-05-07 16:08 | 54.27361 | 10.05272 | 7130 ft | 277 kts | 152° |
| 2026-05-07 16:09 | 54.25615 | 10.06679 | 7130 ft | 277 kts | 153° |
| 2026-05-07 16:09 | 54.23872 | 10.08082 | 7129 ft | 277 kts | 153° |
| 2026-05-07 16:09 | 54.22129 | 10.09486 | 7133 ft | 277 kts | 153° |
| 2026-05-07 16:09 | 54.20385 | 10.10891 | 7140 ft | 278 kts | 152° |
| 2026-05-07 16:10 | 54.18632 | 10.12303 | 7124 ft | 278 kts | 152° |
| 2026-05-07 16:10 | 54.16882 | 10.13712 | 7119 ft | 278 kts | 153° |
| 2026-05-07 16:10 | 54.15135 | 10.15115 | 7117 ft | 277 kts | 153° |
| 2026-05-07 16:10 | 54.13389 | 10.16515 | 7103 ft | 278 kts | 153° |
| 2026-05-07 16:11 | 54.11637 | 10.17918 | 7099 ft | 278 kts | 153° |
| 2026-05-07 16:11 | 54.09892 | 10.19318 | 7100 ft | 278 kts | 152° |
| 2026-05-07 16:11 | 54.08145 | 10.20719 | 7032 ft | 277 kts | 152° |
| 2026-05-07 16:11 | 54.06406 | 10.22108 | 6643 ft | 276 kts | 152° |
| 2026-05-07 16:12 | 54.04669 | 10.23493 | 6284 ft | 274 kts | 152° |
| 2026-05-07 16:12 | 54.02954 | 10.24860 | 5926 ft | 271 kts | 152° |
| 2026-05-07 16:12 | 54.01271 | 10.26205 | 5543 ft | 269 kts | 151° |
| 2026-05-07 16:12 | 53.99578 | 10.27557 | 5166 ft | 267 kts | 151° |
| 2026-05-07 16:13 | 53.97868 | 10.28778 | 5093 ft | 268 kts | 159° |
| 2026-05-07 16:13 | 53.96044 | 10.29516 | 5103 ft | 271 kts | 166° |
| 2026-05-07 16:13 | 53.94188 | 10.30119 | 5102 ft | 271 kts | 166° |
| 2026-05-07 16:13 | 53.92334 | 10.30729 | 5104 ft | 271 kts | 166° |
| 2026-05-07 16:14 | 53.90479 | 10.31345 | 5103 ft | 271 kts | 166° |
| 2026-05-07 16:14 | 53.88648 | 10.31951 | 5099 ft | 271 kts | 166° |
| 2026-05-07 16:14 | 53.86798 | 10.32566 | 5102 ft | 271 kts | 167° |
| 2026-05-07 16:14 | 53.84950 | 10.33177 | 5106 ft | 271 kts | 166° |
| 2026-05-07 16:15 | 53.83090 | 10.33793 | 5101 ft | 271 kts | 166° |
| 2026-05-07 16:15 | 53.81237 | 10.34406 | 5104 ft | 271 kts | 166° |
| 2026-05-07 16:15 | 53.79387 | 10.35015 | 5115 ft | 271 kts | 166° |
| 2026-05-07 16:15 | 53.77538 | 10.35622 | 5103 ft | 269 kts | 166° |
| 2026-05-07 16:16 | 53.75731 | 10.36214 | 5097 ft | 257 kts | 166° |
| 2026-05-07 16:16 | 53.74027 | 10.36752 | 5099 ft | 242 kts | 169° |
| 2026-05-07 16:16 | 53.72359 | 10.36690 | 5098 ft | 242 kts | 189° |
| 2026-05-07 16:16 | 53.70792 | 10.35728 | 5097 ft | 245 kts | 209° |
| 2026-05-07 16:17 | 53.69468 | 10.33905 | 5099 ft | 249 kts | 229° |
| 2026-05-07 16:17 | 53.68373 | 10.31658 | 5094 ft | 248 kts | 230° |
| 2026-05-07 16:17 | 53.67272 | 10.29401 | 5084 ft | 250 kts | 229° |
| 2026-05-07 16:17 | 53.66166 | 10.27143 | 5085 ft | 249 kts | 230° |
| 2026-05-07 16:18 | 53.65063 | 10.24895 | 5084 ft | 248 kts | 229° |
| 2026-05-07 16:18 | 53.63966 | 10.22661 | 5085 ft | 247 kts | 230° |
| 2026-05-07 16:18 | 53.62869 | 10.20428 | 5082 ft | 246 kts | 229° |
| 2026-05-07 16:18 | 53.61774 | 10.18198 | 5085 ft | 248 kts | 229° |
| 2026-05-07 16:19 | 53.60674 | 10.15958 | 5083 ft | 248 kts | 229° |
| 2026-05-07 16:19 | 53.59585 | 10.13743 | 5082 ft | 248 kts | 229° |
| 2026-05-07 16:19 | 53.58480 | 10.11498 | 5082 ft | 248 kts | 230° |
| 2026-05-07 16:19 | 53.57378 | 10.09261 | 5084 ft | 249 kts | 229° |
| 2026-05-07 16:20 | 53.56274 | 10.07025 | 5086 ft | 247 kts | 230° |
| 2026-05-07 16:20 | 53.55184 | 10.04823 | 4934 ft | 244 kts | 229° |
| 2026-05-07 16:20 | 53.54094 | 10.02627 | 4568 ft | 244 kts | 230° |
| 2026-05-07 16:20 | 53.53008 | 10.00437 | 4221 ft | 243 kts | 229° |
| 2026-05-07 16:21 | 53.51922 | 9.98246 | 3886 ft | 243 kts | 229° |
| 2026-05-07 16:21 | 53.50843 | 9.96067 | 3566 ft | 241 kts | 229° |
| 2026-05-07 16:21 | 53.49773 | 9.93904 | 3237 ft | 241 kts | 229° |
| 2026-05-07 16:21 | 53.48706 | 9.91757 | 3015 ft | 238 kts | 229° |
| 2026-05-07 16:22 | 53.47644 | 9.89623 | 3009 ft | 239 kts | 229° |
| 2026-05-07 16:22 | 53.46578 | 9.87481 | 3005 ft | 239 kts | 229° |
| 2026-05-07 16:22 | 53.45518 | 9.85343 | 3011 ft | 239 kts | 229° |
| 2026-05-07 16:22 | 53.44453 | 9.83194 | 3007 ft | 240 kts | 229° |
| 2026-05-07 16:23 | 53.43385 | 9.81047 | 3003 ft | 239 kts | 229° |
| 2026-05-07 16:23 | 53.42317 | 9.78906 | 3003 ft | 239 kts | 229° |
| 2026-05-07 16:23 | 53.41250 | 9.76770 | 3004 ft | 239 kts | 229° |
| 2026-05-07 16:23 | 53.40185 | 9.74643 | 3005 ft | 239 kts | 229° |
| 2026-05-07 16:24 | 53.39132 | 9.72538 | 3007 ft | 239 kts | 229° |
| 2026-05-07 16:24 | 53.38065 | 9.70403 | 3005 ft | 239 kts | 229° |
| 2026-05-07 16:24 | 53.36990 | 9.68253 | 3002 ft | 240 kts | 229° |
| 2026-05-07 16:24 | 53.35916 | 9.66114 | 3002 ft | 240 kts | 229° |
| 2026-05-07 16:25 | 53.34842 | 9.63979 | 3005 ft | 239 kts | 229° |
| 2026-05-07 16:25 | 53.33776 | 9.61860 | 3001 ft | 237 kts | 229° |
| 2026-05-07 16:25 | 53.32716 | 9.59757 | 2996 ft | 236 kts | 229° |
| 2026-05-07 16:25 | 53.31661 | 9.57664 | 2998 ft | 236 kts | 229° |
| 2026-05-07 16:26 | 53.30615 | 9.55539 | 3039 ft | 235 kts | 235° |
| 2026-05-07 16:26 | 53.30039 | 9.52982 | 3287 ft | 239 kts | 266° |
| 2026-05-07 16:26 | 53.30125 | 9.51155 | 3467 ft | 238 kts | 288° |
| 2026-05-07 16:26 | 53.30930 | 9.48786 | 3716 ft | 235 kts | 318° |
| 2026-05-07 16:27 | 53.32577 | 9.46420 | 3965 ft | 235 kts | 323° |
| 2026-05-07 16:27 | 53.33461 | 9.45407 | 3991 ft | 231 kts | 338° |
| 2026-05-07 16:27 | 53.35006 | 9.44942 | 4000 ft | 225 kts | 9° |
| 2026-05-07 16:27 | 53.36450 | 9.45822 | 4002 ft | 222 kts | 38° |
| 2026-05-07 16:28 | 53.37513 | 9.47659 | 4004 ft | 221 kts | 51° |
| 2026-05-07 16:28 | 53.38497 | 9.49622 | 4004 ft | 220 kts | 51° |
| 2026-05-07 16:28 | 53.39483 | 9.51586 | 4001 ft | 220 kts | 51° |
| 2026-05-07 16:28 | 53.40509 | 9.53655 | 4006 ft | 243 kts | 51° |
| 2026-05-07 16:29 | 53.41564 | 9.55775 | 3998 ft | 228 kts | 51° |
| 2026-05-07 16:29 | 53.42562 | 9.57761 | 4003 ft | 220 kts | 51° |
| 2026-05-07 16:29 | 53.43586 | 9.59799 | 4007 ft | 242 kts | 51° |
| 2026-05-07 16:29 | 53.44688 | 9.61993 | 4001 ft | 244 kts | 51° |
| 2026-05-07 16:30 | 53.45750 | 9.64107 | 3902 ft | 230 kts | 51° |
| 2026-05-07 16:30 | 53.46755 | 9.66111 | 3768 ft | 220 kts | 50° |
| 2026-05-07 16:30 | 53.47673 | 9.67946 | 3636 ft | 211 kts | 51° |
| 2026-05-07 16:30 | 53.48606 | 9.69810 | 3390 ft | 208 kts | 51° |
| 2026-05-07 16:31 | 53.49534 | 9.71665 | 3099 ft | 205 kts | 51° |
| 2026-05-07 16:31 | 53.50442 | 9.73483 | 3038 ft | 205 kts | 51° |
| 2026-05-07 16:31 | 53.51365 | 9.75330 | 3039 ft | 208 kts | 51° |
| 2026-05-07 16:31 | 53.52294 | 9.77193 | 2986 ft | 207 kts | 51° |
| 2026-05-07 16:32 | 53.53214 | 9.79037 | 2774 ft | 207 kts | 51° |
| 2026-05-07 16:32 | 53.54141 | 9.80898 | 2510 ft | 207 kts | 51° |
| 2026-05-07 16:32 | 53.55054 | 9.82731 | 2231 ft | 201 kts | 51° |
| 2026-05-07 16:32 | 53.55923 | 9.84476 | 1968 ft | 189 kts | 51° |
| 2026-05-07 16:33 | 53.56736 | 9.86110 | 1740 ft | 177 kts | 52° |
| 2026-05-07 16:33 | 53.57507 | 9.87660 | 1486 ft | 164 kts | 51° |
| 2026-05-07 16:33 | 53.58216 | 9.89089 | 1266 ft | 154 kts | 52° |
| 2026-05-07 16:33 | 53.58872 | 9.90410 | 1049 ft | 145 kts | 50° |
| 2026-05-07 16:34 | 53.59495 | 9.91668 | 854 ft | 136 kts | 51° |
| 2026-05-07 16:34 | 53.60100 | 9.92889 | 686 ft | 135 kts | 50° |
| 2026-05-07 16:34 | 53.60698 | 9.94095 | 492 ft | 134 kts | 50° |
| 2026-05-07 16:34 | 53.61277 | 9.95263 | 323 ft | 128 kts | 52° |
| 2026-05-07 16:35 | 53.61843 | 9.96415 | 106 ft | 126 kts | 51° |
| 2026-05-07 16:35 | 53.62400 | 9.97535 | 48 ft | 120 kts | 50° |
| 2026-05-07 16:35 | 53.62770 | 9.98281 | 50 ft | 40 kts | 50° |
| 2026-05-07 16:35 | 53.62812 | 9.98369 | 50 ft | 3 kts | 50° |
| 2026-05-07 16:36 | 53.62845 | 9.98435 | 50 ft | 13 kts | 50° |
| 2026-05-07 16:36 | 53.62826 | 9.98498 | 50 ft | 8 kts | 200° |
| 2026-05-07 16:36 | 53.62808 | 9.98490 | 51 ft | 2 kts | 194° |
| 2026-05-07 16:36 | 53.62798 | 9.98486 | 51 ft | 1 kts | 192° |
| 2026-05-07 16:37 | 53.62796 | 9.98486 | 51 ft | 0 kts | 192° |
| 2026-05-07 16:38 | 53.62738 | 9.98473 | 51 ft | 12 kts | 177° |
| 2026-05-07 16:38 | 53.62696 | 9.98525 | 50 ft | 7 kts | 112° |
| 2026-05-07 16:39 | 53.62709 | 9.98590 | 51 ft | 6 kts | 52° |
| 2026-05-07 16:39 | 53.62747 | 9.98668 | 50 ft | 11 kts | 50° |
| 2026-05-07 16:39 | 53.62811 | 9.98797 | 50 ft | 17 kts | 48° |
| 2026-05-07 16:39 | 53.62897 | 9.98971 | 50 ft | 22 kts | 50° |
| 2026-05-07 16:40 | 53.62995 | 9.99170 | 50 ft | 21 kts | 50° |
| 2026-05-07 16:40 | 53.63070 | 9.99332 | 50 ft | 11 kts | 55° |
| 2026-05-07 16:40 | 53.63085 | 9.99368 | 50 ft | 0 kts | 55° |
| 2026-05-07 16:41 | 53.63086 | 9.99370 | 50 ft | 2 kts | 55° |
| 2026-05-07 16:41 | 53.63106 | 9.99421 | 50 ft | 8 kts | 55° |
| 2026-05-07 16:41 | 53.63155 | 9.99533 | 49 ft | 15 kts | 51° |
| 2026-05-07 16:42 | 53.63226 | 9.99677 | 50 ft | 14 kts | 46° |
| 2026-05-07 16:42 | 53.63307 | 9.99820 | 50 ft | 19 kts | 51° |
| 2026-05-07 16:42 | 53.63400 | 10.00009 | 50 ft | 19 kts | 50° |
| 2026-05-07 16:42 | 53.63424 | 10.00128 | 51 ft | 0 kts | 111° |
| 2026-05-07 16:43 | 53.63424 | 10.00130 | 51 ft | 0 kts | 111° |
| 2026-05-07 16:43 | 53.63423 | 10.00131 | 51 ft | 2 kts | 111° |
| 2026-05-07 16:44 | 53.63404 | 10.00185 | 50 ft | 9 kts | 124° |
| 2026-05-07 16:44 | 53.63357 | 10.00232 | 51 ft | 1 kts | 176° |
| 2026-05-07 16:44 | 53.63356 | 10.00232 | 47 ft | 0 kts | 176° |
| 2026-05-07 16:45 | 53.63359 | 10.00359 | 48 ft | 0 kts | 86° |
| 2026-05-07 16:45 | 53.63359 | 10.00360 | 48 ft | 0 kts | 86° |